createdAt,value
2022-08-26T00:02:01.850Z,7.30
2022-08-26T00:04:32.010Z,7.07
2022-08-26T00:07:05.339Z,7.03
2022-08-26T00:09:37.257Z,6.60
2022-08-26T00:12:09.554Z,7.07
2022-08-26T00:14:42.204Z,7.10
2022-08-26T00:17:11.920Z,6.18
2022-08-26T00:19:41.348Z,7.53
2022-08-26T00:22:14.333Z,8.05
2022-08-26T00:24:51.104Z,7.97
2022-08-26T00:27:20.587Z,8.30
2022-08-26T00:29:50.281Z,7.68
2022-08-26T00:32:20.208Z,8.07
2022-08-26T00:34:49.680Z,8.95
2022-08-26T00:37:21.697Z,6.82
2022-08-26T00:39:52.868Z,6.53
2022-08-26T00:44:52.212Z,6.80
2022-08-26T00:47:25.249Z,8.57
2022-08-26T00:49:54.784Z,8.43
2022-08-26T00:52:26.824Z,7.13
2022-08-26T00:54:58.221Z,7.53
2022-08-26T00:57:28.127Z,7.50
2022-08-26T00:59:59.322Z,7.22
2022-08-26T01:02:29.614Z,6.80
2022-08-26T01:05:00.704Z,9.05
2022-08-26T01:07:33.187Z,7.35
2022-08-26T01:10:04.556Z,7.80
2022-08-26T01:12:36.540Z,9.82
2022-08-26T01:15:10.537Z,6.82
2022-08-26T01:17:41.176Z,9.43
2022-08-26T01:20:19.755Z,8.40
2022-08-26T01:22:54.769Z,7.30
2022-08-26T01:25:24.384Z,9.02
2022-08-26T01:27:53.941Z,8.52
2022-08-26T01:30:27.187Z,9.00
2022-08-26T01:32:57.460Z,7.53
2022-08-26T01:35:26.926Z,8.43
2022-08-26T01:38:00.286Z,8.60
2022-08-26T01:40:32.693Z,8.70
2022-08-26T01:43:02.492Z,8.25
2022-08-26T01:45:32.915Z,7.95
2022-08-26T01:48:02.512Z,8.25
2022-08-26T01:50:33.515Z,8.25
2022-08-26T01:53:09.515Z,7.75
2022-08-26T01:55:40.678Z,8.90
2022-08-26T01:58:12.226Z,6.90
2022-08-26T02:00:44.128Z,7.85
2022-08-26T02:03:21.683Z,7.57
2022-08-26T02:05:55.996Z,8.93
2022-08-26T02:08:30.097Z,8.07
2022-08-26T02:11:00.124Z,10.85
2022-08-26T02:13:30.622Z,8.38
2022-08-26T02:16:00.556Z,7.47
2022-08-26T02:18:30.561Z,8.70
2022-08-26T02:21:00.408Z,8.20
2022-08-26T02:23:32.560Z,8.70
2022-08-26T02:26:05.528Z,9.43
2022-08-26T02:28:38.436Z,8.27
2022-08-26T02:31:08.587Z,9.30
2022-08-26T02:33:43.125Z,9.38
2022-08-26T02:36:13.503Z,9.30
2022-08-26T02:38:47.586Z,9.70
2022-08-26T02:41:17.620Z,8.30
2022-08-26T02:43:47.575Z,9.27
2022-08-26T02:46:21.512Z,7.90
2022-08-26T02:48:59.647Z,8.93
2022-08-26T02:51:29.087Z,8.38
2022-08-26T02:54:01.143Z,7.43
2022-08-26T02:56:31.068Z,8.38
2022-08-26T02:59:02.007Z,7.97
2022-08-26T03:01:33.411Z,8.85
2022-08-26T03:04:03.191Z,8.68
2022-08-26T03:06:32.814Z,8.13
2022-08-26T03:09:04.864Z,10.48
2022-08-26T03:11:34.479Z,9.07
2022-08-26T03:14:04.836Z,8.40
2022-08-26T03:16:35.443Z,10.07
2022-08-26T03:19:05.181Z,8.60
2022-08-26T03:21:35.500Z,9.88
2022-08-26T03:24:08.568Z,11.13
2022-08-26T03:26:38.013Z,9.95
2022-08-26T03:29:21.116Z,9.82
2022-08-26T03:31:50.610Z,9.35
2022-08-26T03:34:20.241Z,11.32
2022-08-26T03:36:51.877Z,8.93
2022-08-26T03:39:23.915Z,11.05
2022-08-26T03:41:55.409Z,9.25
2022-08-26T03:46:54.993Z,11.20
2022-08-26T03:49:24.654Z,9.03
2022-08-26T03:51:58.413Z,7.97
2022-08-26T03:54:30.458Z,7.78
2022-08-26T03:56:59.930Z,8.00
2022-08-26T03:59:29.466Z,9.00
2022-08-26T04:01:59.037Z,9.68
2022-08-26T04:04:28.596Z,8.20
2022-08-26T04:06:59.076Z,9.85
2022-08-26T04:09:31.106Z,9.70
2022-08-26T04:12:04.659Z,9.13
2022-08-26T04:14:35.672Z,8.40
2022-08-26T04:17:07.508Z,8.45
2022-08-26T04:19:37.055Z,9.25
2022-08-26T04:22:06.526Z,8.20
2022-08-26T04:24:39.177Z,10.55
2022-08-26T04:27:10.389Z,8.90
2022-08-26T04:29:41.610Z,11.23
2022-08-26T04:32:11.241Z,10.70
2022-08-26T04:34:41.449Z,8.45
2022-08-26T04:37:13.213Z,9.27
2022-08-26T04:39:45.760Z,10.68
2022-08-26T04:42:19.888Z,11.52
2022-08-26T04:44:55.688Z,8.48
2022-08-26T04:47:29.134Z,9.38
2022-08-26T04:50:01.978Z,13.02
2022-08-26T04:52:31.580Z,11.48
2022-08-26T04:55:03.604Z,12.18
2022-08-26T04:57:36.143Z,10.80
2022-08-26T05:00:06.997Z,11.77
2022-08-26T05:05:07.225Z,14.68
2022-08-26T05:07:36.961Z,14.73
2022-08-26T05:10:10.233Z,16.52
2022-08-26T05:12:40.317Z,14.65
2022-08-26T05:15:11.244Z,13.52
2022-08-26T05:17:40.776Z,13.38
2022-08-26T05:20:12.037Z,15.95
2022-08-26T05:22:41.533Z,14.10
2022-08-26T05:25:13.708Z,13.75
2022-08-26T05:27:43.171Z,13.20
2022-08-26T05:30:13.388Z,14.73
2022-08-26T05:32:42.854Z,13.98
2022-08-26T05:35:12.593Z,17.35
2022-08-26T05:37:42.426Z,16.98
2022-08-26T05:40:15.274Z,18.63
2022-08-26T05:42:44.760Z,17.45
2022-08-26T05:45:15.077Z,17.48
2022-08-26T05:47:46.744Z,20.27
2022-08-26T05:50:21.790Z,16.65
2022-08-26T05:52:52.432Z,18.00
2022-08-26T05:55:26.900Z,19.55
2022-08-26T05:57:56.685Z,19.60
2022-08-26T06:00:26.846Z,17.92
2022-08-26T06:02:56.395Z,20.17
2022-08-26T06:05:26.665Z,20.48
2022-08-26T06:08:10.378Z,23.50
2022-08-26T06:10:48.476Z,19.45
2022-08-26T06:13:18.525Z,21.77
2022-08-26T06:15:50.331Z,23.90
2022-08-26T06:18:21.257Z,27.85
2022-08-26T06:26:26.435Z,25.55
2022-08-26T06:28:56.139Z,25.35
2022-08-26T06:31:25.732Z,24.65
2022-08-26T06:33:55.385Z,30.20
2022-08-26T06:36:25.939Z,28.23
2022-08-26T06:38:55.879Z,31.02
2022-08-26T06:41:27.925Z,29.03
2022-08-26T06:43:57.370Z,29.25
2022-08-26T06:46:27.192Z,26.25
2022-08-26T06:48:58.216Z,28.25
2022-08-26T06:53:59.587Z,27.40
2022-08-26T06:56:34.824Z,24.80
2022-08-26T06:59:04.569Z,28.15
2022-08-26T07:01:38.542Z,24.83
2022-08-26T07:04:15.909Z,25.45
2022-08-26T07:06:52.897Z,24.48
2022-08-26T07:09:23.065Z,26.83
2022-08-26T07:11:56.188Z,24.35
2022-08-26T07:14:26.201Z,24.90
2022-08-26T07:16:56.010Z,23.00
2022-08-26T07:19:31.092Z,23.90
2022-08-26T07:22:02.228Z,24.20
2022-08-26T07:24:33.017Z,25.33
2022-08-26T07:27:07.250Z,22.27
2022-08-26T07:29:39.009Z,24.08
2022-08-26T07:32:08.841Z,24.73
2022-08-26T07:34:39.724Z,25.60
2022-08-26T07:37:11.336Z,24.13
2022-08-26T07:39:41.782Z,25.88
2022-08-26T07:42:15.844Z,26.65
2022-08-26T07:44:47.914Z,25.27
2022-08-26T07:47:24.932Z,25.80
2022-08-26T07:49:56.454Z,23.38
2022-08-26T07:52:27.238Z,26.10
2022-08-26T07:54:58.233Z,23.58
2022-08-26T07:59:59.937Z,23.15
2022-08-26T08:02:30.663Z,24.73
2022-08-26T08:05:00.290Z,27.70
2022-08-26T08:07:44.979Z,26.02
2022-08-26T08:10:15.651Z,23.17
2022-08-26T08:12:47.869Z,23.20
2022-08-26T08:15:17.549Z,23.63
2022-08-26T08:17:47.006Z,19.77
2022-08-26T08:20:20.440Z,23.15
2022-08-26T08:22:50.069Z,25.00
2022-08-26T08:25:19.545Z,24.33
2022-08-26T08:27:51.578Z,23.65
2022-08-26T08:30:23.070Z,23.08
2022-08-26T08:32:52.712Z,27.88
2022-08-26T08:35:23.357Z,21.05
2022-08-26T08:40:25.467Z,22.55
2022-08-26T08:43:00.315Z,21.58
2022-08-26T08:45:36.554Z,23.50
2022-08-26T08:48:08.104Z,22.67
2022-08-26T08:50:44.650Z,20.52
2022-08-26T08:53:17.788Z,21.45
2022-08-26T08:56:00.130Z,23.52
2022-08-26T08:58:37.549Z,20.55
2022-08-26T09:01:09.860Z,21.98
2022-08-26T09:03:45.956Z,21.58
2022-08-26T09:06:20.580Z,24.13
2022-08-26T09:08:51.186Z,20.33
2022-08-26T09:11:21.103Z,21.98
2022-08-26T09:13:54.564Z,18.42
2022-08-26T09:16:27.673Z,22.10
2022-08-26T09:19:07.023Z,20.33
2022-08-26T09:21:36.590Z,20.13
2022-08-26T09:24:06.824Z,19.70
2022-08-26T09:26:45.616Z,19.87
2022-08-26T09:31:52.055Z,21.67
2022-08-26T09:34:23.811Z,18.40
2022-08-26T09:36:54.308Z,20.90
2022-08-26T09:39:37.697Z,21.73
2022-08-26T09:42:10.781Z,19.88
2022-08-26T09:44:59.741Z,22.20
2022-08-26T09:47:31.764Z,20.98
2022-08-26T09:50:04.665Z,19.50
2022-08-26T09:52:40.642Z,18.60
2022-08-26T09:55:15.013Z,21.80
2022-08-26T09:57:49.654Z,22.35
2022-08-26T10:00:32.356Z,20.85
2022-08-26T10:03:03.310Z,22.58
2022-08-26T10:05:35.916Z,21.40
2022-08-26T10:08:18.714Z,21.48
2022-08-26T10:10:48.239Z,23.08
2022-08-26T10:13:27.995Z,22.05
2022-08-26T10:16:06.271Z,21.23
2022-08-26T10:18:43.077Z,22.58
2022-08-26T10:21:15.041Z,23.85
2022-08-26T10:23:48.950Z,24.02
2022-08-26T10:26:21.517Z,22.50
2022-08-26T10:28:53.773Z,21.95
2022-08-26T10:31:30.311Z,21.10
2022-08-26T10:34:07.942Z,22.95
2022-08-26T10:37:14.546Z,23.50
2022-08-26T10:39:46.362Z,22.20
2022-08-26T10:42:19.265Z,22.95
2022-08-26T10:44:49.386Z,24.48
2022-08-26T10:47:24.613Z,27.08
2022-08-26T10:49:57.502Z,28.00
2022-08-26T10:52:35.025Z,24.48
2022-08-26T10:55:05.964Z,26.73
2022-08-26T10:57:45.204Z,24.55
2022-08-26T11:00:29.076Z,25.73
2022-08-26T11:03:06.191Z,25.10
2022-08-26T11:06:08.461Z,23.95
2022-08-26T11:08:37.931Z,25.60
2022-08-26T11:11:09.195Z,24.70
2022-08-26T11:14:06.333Z,25.67
2022-08-26T11:16:43.436Z,26.42
2022-08-26T11:20:00.233Z,26.92
2022-08-26T11:22:32.300Z,25.10
2022-08-26T11:25:12.228Z,25.05
2022-08-26T11:28:09.388Z,25.42
2022-08-26T11:30:57.676Z,25.17
2022-08-26T11:34:00.766Z,22.60
2022-08-26T11:37:03.483Z,26.40
2022-08-26T11:39:36.665Z,25.20
2022-08-26T11:42:25.426Z,24.40
2022-08-26T11:44:58.194Z,24.83
2022-08-26T11:50:14.334Z,23.92
2022-08-26T11:52:53.337Z,24.65
2022-08-26T11:55:23.305Z,21.80
2022-08-26T11:57:54.639Z,23.63
2022-08-26T12:00:25.391Z,24.13
2022-08-26T12:02:55.666Z,24.15
2022-08-26T12:05:30.833Z,21.83
2022-08-26T12:08:06.226Z,21.85
2022-08-26T12:10:36.531Z,21.42
2022-08-26T12:13:07.236Z,21.27
2022-08-26T12:15:36.957Z,20.90
2022-08-26T12:18:29.681Z,23.50
2022-08-26T12:21:01.578Z,20.15
2022-08-26T12:23:43.331Z,20.10
2022-08-26T12:26:15.412Z,19.33
2022-08-26T12:28:47.108Z,19.08
2022-08-26T12:31:24.106Z,19.45
2022-08-26T12:33:54.699Z,21.80
2022-08-26T12:36:27.611Z,20.25
2022-08-26T12:39:08.354Z,21.40
2022-08-26T12:41:46.981Z,20.30
2022-08-26T12:44:38.341Z,21.75
2022-08-26T12:47:09.262Z,19.35
2022-08-26T12:49:39.505Z,18.63
2022-08-26T12:52:09.920Z,21.80
2022-08-26T12:57:29.114Z,20.52
2022-08-26T13:00:40.828Z,20.60
2022-08-26T13:03:46.102Z,20.20
2022-08-26T13:06:17.773Z,21.65
2022-08-26T13:08:47.783Z,20.92
2022-08-26T13:11:21.601Z,19.17
2022-08-26T13:13:51.706Z,20.40
2022-08-26T13:16:21.669Z,22.40
2022-08-26T13:18:51.626Z,21.42
2022-08-26T13:21:22.144Z,22.30
2022-08-26T13:23:51.729Z,21.40
2022-08-26T13:26:24.322Z,22.57
2022-08-26T13:29:01.445Z,21.27
2022-08-26T13:31:32.507Z,21.80
2022-08-26T13:34:03.082Z,21.60
2022-08-26T13:36:32.581Z,18.53
2022-08-26T13:39:02.027Z,19.60
2022-08-26T13:41:34.595Z,20.20
2022-08-26T13:44:04.268Z,21.55
2022-08-26T13:46:33.819Z,19.42
2022-08-26T13:49:03.401Z,22.00
2022-08-26T13:51:33.013Z,19.57
2022-08-26T13:54:02.522Z,18.73
2022-08-26T13:56:34.628Z,21.53
2022-08-26T13:59:04.401Z,20.02
2022-08-26T14:01:34.479Z,20.40
2022-08-26T14:04:03.946Z,20.98
2022-08-26T14:06:33.449Z,22.87
2022-08-26T14:09:03.218Z,20.20
2022-08-26T14:11:50.981Z,20.85
2022-08-26T14:14:25.083Z,22.27
2022-08-26T14:19:30.539Z,19.02
2022-08-26T14:22:00.771Z,19.35
2022-08-26T14:24:30.880Z,21.33
2022-08-26T14:27:02.912Z,20.70
2022-08-26T14:29:32.352Z,18.13
2022-08-26T14:32:02.492Z,21.67
2022-08-26T14:34:32.069Z,21.33
2022-08-26T14:37:07.246Z,20.23
2022-08-26T14:39:38.129Z,18.05
2022-08-26T14:42:10.351Z,16.85
2022-08-26T14:44:40.004Z,18.60
2022-08-26T14:47:09.629Z,19.23
2022-08-26T14:49:39.077Z,17.27
2022-08-26T14:52:08.588Z,17.38
2022-08-26T14:54:35.435Z,18.23
2022-08-26T14:57:06.240Z,17.98
2022-08-26T14:59:39.308Z,21.35
2022-08-26T15:02:11.501Z,22.58
2022-08-26T15:04:59.869Z,19.95
2022-08-26T15:07:29.318Z,22.83
2022-08-26T15:09:58.729Z,21.80
2022-08-26T15:12:28.182Z,22.75
2022-08-26T15:15:00.197Z,22.92
2022-08-26T15:17:29.884Z,22.40
2022-08-26T15:19:59.361Z,21.27
2022-08-26T15:22:29.877Z,22.70
2022-08-26T15:27:28.618Z,22.00
2022-08-26T15:30:00.624Z,19.88
2022-08-26T15:32:30.762Z,21.35
2022-08-26T15:35:00.200Z,20.00
2022-08-26T15:37:29.661Z,23.33
2022-08-26T15:39:59.481Z,20.67
2022-08-26T15:42:28.932Z,19.90
2022-08-26T15:45:00.950Z,18.90
2022-08-26T15:47:31.083Z,18.05
2022-08-26T15:50:04.898Z,19.02
2022-08-26T15:52:34.349Z,19.00
2022-08-26T15:57:53.469Z,15.88
2022-08-26T16:00:26.472Z,18.63
2022-08-26T16:02:55.940Z,14.95
2022-08-26T16:05:25.473Z,15.95
2022-08-26T16:07:55.084Z,16.30
2022-08-26T16:10:24.790Z,16.40
2022-08-26T16:12:54.262Z,14.07
2022-08-26T16:15:26.287Z,15.93
2022-08-26T16:17:55.734Z,14.70
2022-08-26T16:20:26.163Z,13.35
2022-08-26T16:22:55.621Z,12.82
2022-08-26T16:25:25.435Z,13.00
2022-08-26T16:27:54.908Z,18.17
2022-08-26T16:30:27.769Z,13.18
2022-08-26T16:32:58.623Z,13.50
2022-08-26T16:35:28.232Z,15.27
2022-08-26T16:37:57.953Z,11.85
2022-08-26T16:40:27.518Z,11.48
2022-08-26T16:42:57.364Z,11.85
2022-08-26T16:45:29.448Z,10.13
2022-08-26T16:47:59.170Z,10.10
2022-08-26T16:50:28.605Z,10.70
2022-08-26T16:52:58.145Z,11.55
2022-08-26T16:55:27.584Z,11.40
2022-08-26T16:57:57.032Z,15.77
2022-08-26T17:00:30.490Z,11.80
2022-08-26T17:03:00.592Z,10.85
2022-08-26T17:05:30.461Z,10.00
2022-08-26T17:08:01.093Z,11.27
2022-08-26T17:10:31.196Z,11.05
2022-08-26T17:13:00.794Z,12.15
2022-08-26T17:15:32.925Z,10.95
2022-08-26T17:18:02.477Z,9.57
2022-08-26T17:20:32.412Z,10.00
2022-08-26T17:23:01.965Z,10.27
2022-08-26T17:25:33.241Z,11.00
2022-08-26T17:28:02.682Z,11.75
2022-08-26T17:30:34.732Z,11.30
2022-08-26T17:33:10.913Z,9.68
2022-08-26T17:35:40.625Z,12.40
2022-08-26T17:38:10.435Z,12.70
2022-08-26T17:40:40.093Z,10.93
2022-08-26T17:43:12.324Z,12.50
2022-08-26T17:45:44.642Z,10.35
2022-08-26T17:48:14.104Z,10.63
2022-08-26T17:50:49.400Z,12.20
2022-08-26T17:53:19.420Z,12.90
2022-08-26T17:55:48.948Z,14.27
2022-08-26T17:58:18.617Z,11.52
2022-08-26T18:00:54.182Z,9.82
2022-08-26T18:03:23.700Z,13.68
2022-08-26T18:05:53.863Z,11.40
2022-08-26T18:08:23.520Z,12.98
2022-08-26T18:10:53.009Z,12.77
2022-08-26T18:13:22.467Z,11.98
2022-08-26T18:15:54.518Z,10.48
2022-08-26T18:18:24.008Z,11.65
2022-08-26T18:21:01.511Z,13.23
2022-08-26T18:23:31.608Z,12.35
2022-08-26T18:26:01.045Z,10.00
2022-08-26T18:28:30.500Z,11.10
2022-08-26T18:31:04.398Z,10.63
2022-08-26T18:33:33.904Z,12.93
2022-08-26T18:36:03.698Z,12.02
2022-08-26T18:38:33.430Z,13.90
2022-08-26T18:41:06.416Z,14.98
2022-08-26T18:43:36.277Z,13.07
2022-08-26T18:46:09.520Z,13.80
2022-08-26T18:48:39.682Z,12.32
2022-08-26T18:51:09.250Z,14.82
2022-08-26T18:53:42.098Z,16.52
2022-08-26T18:56:13.219Z,11.55
2022-08-26T18:58:44.863Z,14.27
2022-08-26T19:01:26.749Z,13.55
2022-08-26T19:03:57.003Z,14.00
2022-08-26T19:06:27.064Z,12.87
2022-08-26T19:08:57.965Z,11.70
2022-08-26T19:11:32.568Z,12.18
2022-08-26T19:14:06.995Z,13.73
2022-08-26T19:16:39.260Z,12.20
2022-08-26T19:19:08.753Z,11.70
2022-08-26T19:21:38.670Z,11.85
2022-08-26T19:24:12.279Z,13.50
2022-08-26T19:26:41.772Z,13.40
2022-08-26T19:29:11.317Z,16.00
2022-08-26T19:31:43.965Z,12.73
2022-08-26T19:34:13.648Z,12.50
2022-08-26T19:36:46.733Z,13.40
2022-08-26T19:41:45.484Z,12.90
2022-08-26T19:44:36.744Z,12.57
2022-08-26T19:47:09.665Z,10.25
2022-08-26T19:49:39.107Z,12.00
2022-08-26T19:52:08.768Z,11.05
2022-08-26T19:54:38.209Z,12.07
2022-08-26T19:57:08.045Z,12.85
2022-08-26T19:59:38.031Z,11.80
2022-08-26T20:02:11.275Z,13.63
2022-08-26T20:04:44.437Z,11.85
2022-08-26T20:07:18.135Z,11.60
2022-08-26T20:09:48.517Z,15.70
2022-08-26T20:12:18.741Z,13.60
2022-08-26T20:14:48.167Z,13.13
2022-08-26T20:17:20.210Z,14.13
2022-08-26T20:20:02.219Z,11.80
2022-08-26T20:22:31.679Z,12.15
2022-08-26T20:25:01.133Z,10.90
2022-08-26T20:27:37.927Z,11.00
2022-08-26T20:30:10.160Z,12.13
2022-08-26T20:32:42.568Z,12.68
2022-08-26T20:35:14.029Z,12.00
2022-08-26T20:37:43.521Z,12.90
2022-08-26T20:40:14.421Z,10.98
2022-08-26T20:42:43.985Z,9.13
2022-08-26T20:45:13.925Z,11.93
2022-08-26T20:47:45.957Z,11.60
2022-08-26T20:50:15.414Z,10.10
2022-08-26T20:52:44.854Z,8.93
2022-08-26T20:55:14.330Z,11.63
2022-08-26T20:57:44.350Z,10.75
2022-08-26T21:00:18.141Z,12.17
2022-08-26T21:02:53.906Z,11.68
2022-08-26T21:05:23.448Z,9.48
2022-08-26T21:07:53.265Z,13.23
2022-08-26T21:10:22.945Z,11.43
2022-08-26T21:12:53.036Z,10.23
2022-08-26T21:15:22.481Z,12.80
2022-08-26T21:17:54.480Z,10.90
2022-08-26T21:20:24.135Z,11.00
2022-08-26T21:22:53.628Z,10.55
2022-08-26T21:25:23.193Z,12.35
2022-08-26T21:27:52.673Z,13.43
2022-08-26T21:30:22.187Z,11.35
2022-08-26T21:32:54.216Z,12.38
2022-08-26T21:35:23.663Z,12.10
2022-08-26T21:37:53.089Z,11.05
2022-08-26T21:40:22.593Z,13.23
2022-08-26T21:42:52.073Z,14.63
2022-08-26T21:45:21.814Z,12.52
2022-08-26T21:47:56.413Z,14.48
2022-08-26T21:50:25.922Z,10.90
2022-08-26T21:52:55.366Z,12.63
2022-08-26T21:55:24.926Z,11.63
2022-08-26T21:57:54.933Z,11.57
2022-08-26T22:00:24.542Z,11.95
2022-08-26T22:02:57.456Z,10.07
2022-08-26T22:05:26.905Z,10.75
2022-08-26T22:07:56.396Z,12.10
2022-08-26T22:10:25.893Z,10.95
2022-08-26T22:12:56.052Z,12.07
2022-08-26T22:15:27.552Z,13.10
2022-08-26T22:17:59.831Z,11.77
2022-08-26T22:20:29.281Z,11.45
2022-08-26T22:22:58.719Z,11.38
2022-08-26T22:25:28.222Z,10.57
2022-08-26T22:27:57.693Z,11.52
2022-08-26T22:30:27.145Z,10.55
2022-08-26T22:32:59.442Z,11.73
2022-08-26T22:35:29.716Z,11.38
2022-08-26T22:37:59.393Z,11.90
2022-08-26T22:40:28.907Z,10.10
2022-08-26T22:43:00.256Z,11.27
2022-08-26T22:45:31.343Z,10.50
2022-08-26T22:50:34.078Z,10.13
2022-08-26T22:53:03.512Z,10.65
2022-08-26T22:55:32.997Z,13.05
2022-08-26T22:58:03.076Z,12.27
2022-08-26T23:00:32.664Z,11.75
2022-08-26T23:03:06.927Z,10.88
2022-08-26T23:05:36.406Z,10.15
2022-08-26T23:08:06.435Z,13.15
2022-08-26T23:10:36.917Z,10.90
2022-08-26T23:13:08.135Z,10.20
2022-08-26T23:15:37.819Z,14.18
2022-08-26T23:18:09.986Z,12.55
2022-08-26T23:20:39.830Z,13.65
2022-08-26T23:23:09.464Z,10.20
2022-08-26T23:25:38.902Z,11.45
2022-08-26T23:28:12.505Z,13.15
2022-08-26T23:30:41.953Z,11.85
2022-08-26T23:33:13.946Z,9.93
2022-08-26T23:35:40.799Z,10.85
2022-08-26T23:38:11.777Z,10.55
2022-08-26T23:40:43.652Z,11.68
2022-08-26T23:43:16.355Z,11.70
2022-08-26T23:45:45.862Z,11.68
2022-08-26T23:48:17.900Z,8.48
2022-08-26T23:51:13.122Z,11.10
2022-08-26T23:53:43.565Z,10.30
2022-08-26T23:56:15.742Z,12.25
2022-08-26T23:58:52.470Z,9.80
